createdAt,value
2023-02-13T00:01:47.757Z,11.80
2023-02-13T00:04:16.047Z,14.73
2023-02-13T00:06:44.654Z,12.13
2023-02-13T00:09:13.030Z,13.18
2023-02-13T00:11:41.337Z,11.70
2023-02-13T00:14:09.942Z,11.70
2023-02-13T00:16:39.901Z,11.65
2023-02-13T00:19:08.287Z,11.40
2023-02-13T00:21:36.705Z,11.50
2023-02-13T00:24:05.776Z,10.70
2023-02-13T00:26:34.337Z,10.68
2023-02-13T00:29:02.831Z,11.40
2023-02-13T00:31:31.296Z,10.82
2023-02-13T00:34:01.392Z,9.65
2023-02-13T00:36:31.937Z,10.60
2023-02-13T00:39:00.237Z,11.10
2023-02-13T00:41:29.423Z,10.50
2023-02-13T00:43:57.853Z,10.40
2023-02-13T00:46:26.392Z,10.18
2023-02-13T00:48:55.001Z,11.88
2023-02-13T00:51:24.754Z,10.60
2023-02-13T00:53:53.144Z,9.88
2023-02-13T00:56:21.456Z,10.98
2023-02-13T00:58:49.852Z,10.82
2023-02-13T01:01:18.249Z,12.70
2023-02-13T01:03:46.790Z,10.43
2023-02-13T01:06:15.033Z,9.60
2023-02-13T01:08:45.080Z,10.05
2023-02-13T01:11:13.370Z,9.70
2023-02-13T01:13:41.902Z,8.88
2023-02-13T01:16:10.359Z,11.05
2023-02-13T01:18:40.171Z,11.57
2023-02-13T01:21:10.633Z,10.55
2023-02-13T01:23:40.147Z,12.90
2023-02-13T01:26:14.709Z,12.23
2023-02-13T01:28:43.393Z,11.68
2023-02-13T01:31:14.313Z,11.55
2023-02-13T01:33:42.941Z,11.15
2023-02-13T01:36:18.496Z,10.20
2023-02-13T01:38:47.317Z,10.07
2023-02-13T01:41:17.462Z,12.13
2023-02-13T01:43:52.801Z,13.23
2023-02-13T01:46:30.576Z,14.35
2023-02-13T01:49:04.653Z,14.45
2023-02-13T01:51:36.615Z,12.95
2023-02-13T01:54:09.691Z,12.00
2023-02-13T01:56:41.954Z,10.57
2023-02-13T01:59:14.310Z,10.73
2023-02-13T02:01:43.155Z,11.02
2023-02-13T02:04:15.158Z,11.00
2023-02-13T02:06:46.514Z,10.45
2023-02-13T02:09:18.084Z,11.02
2023-02-13T02:12:01.068Z,10.75
2023-02-13T02:14:30.146Z,10.20
2023-02-13T02:16:58.823Z,10.57
2023-02-13T02:19:36.205Z,9.40
2023-02-13T02:22:44.335Z,10.70
2023-02-13T02:25:27.339Z,9.30
2023-02-13T02:28:32.864Z,9.65
2023-02-13T02:31:24.539Z,9.55
2023-02-13T02:34:08.466Z,8.18
2023-02-13T02:36:50.830Z,9.75
2023-02-13T02:39:27.611Z,9.55
2023-02-13T02:42:10.282Z,8.65
2023-02-13T02:44:46.973Z,8.50
2023-02-13T02:47:45.497Z,8.65
2023-02-13T02:50:28.945Z,8.88
2023-02-13T02:53:09.401Z,8.30
2023-02-13T02:55:42.608Z,9.02
2023-02-13T02:58:34.376Z,8.32
2023-02-13T03:01:22.030Z,8.05
2023-02-13T03:04:11.368Z,8.82
2023-02-13T03:06:47.274Z,9.50
2023-02-13T03:09:37.372Z,10.02
2023-02-13T03:12:24.189Z,10.07
2023-02-13T03:14:52.626Z,9.77
2023-02-13T03:17:38.935Z,10.25
2023-02-13T03:20:39.721Z,8.90
2023-02-13T03:23:15.625Z,10.25
2023-02-13T03:26:06.326Z,10.00
2023-02-13T03:28:58.759Z,10.32
2023-02-13T03:31:37.164Z,9.98
2023-02-13T03:34:08.011Z,10.00
2023-02-13T03:37:04.832Z,10.88
2023-02-13T03:39:45.782Z,11.02
2023-02-13T03:42:21.052Z,10.55
2023-02-13T03:45:14.457Z,12.32
2023-02-13T03:47:45.190Z,11.88
2023-02-13T03:50:14.282Z,14.15
2023-02-13T03:52:48.332Z,13.05
2023-02-13T03:55:37.768Z,11.80
2023-02-13T03:58:28.210Z,12.07
2023-02-13T04:01:01.217Z,15.23
2023-02-13T04:03:34.619Z,13.27
2023-02-13T04:06:09.985Z,12.15
2023-02-13T04:08:38.404Z,12.48
2023-02-13T04:11:15.313Z,17.10
2023-02-13T04:13:49.294Z,13.07
2023-02-13T04:16:23.028Z,13.15
2023-02-13T04:18:53.644Z,14.35
2023-02-13T04:21:22.091Z,11.73
2023-02-13T04:23:50.476Z,11.63
2023-02-13T04:26:22.790Z,12.57
2023-02-13T04:28:51.039Z,14.40
2023-02-13T04:31:19.528Z,12.70
2023-02-13T04:33:48.024Z,14.18
2023-02-13T04:36:16.333Z,12.30
2023-02-13T04:38:45.426Z,12.05
2023-02-13T04:41:13.754Z,11.35
2023-02-13T04:43:43.495Z,12.15
2023-02-13T04:46:11.766Z,15.73
2023-02-13T04:48:40.117Z,14.60
2023-02-13T04:51:08.464Z,12.77
2023-02-13T04:53:36.734Z,12.43
2023-02-13T04:56:05.379Z,12.45
2023-02-13T04:58:33.677Z,12.73
2023-02-13T05:01:03.584Z,12.30
2023-02-13T05:03:31.862Z,13.68
2023-02-13T05:06:00.142Z,17.45
2023-02-13T05:08:28.414Z,13.15
2023-02-13T05:10:57.008Z,13.50
2023-02-13T05:13:25.466Z,12.70
2023-02-13T05:15:53.789Z,17.20
2023-02-13T05:18:23.576Z,13.50
2023-02-13T05:21:05.820Z,15.68
2023-02-13T05:23:34.379Z,13.20
2023-02-13T05:26:02.648Z,13.27
2023-02-13T05:28:48.290Z,15.10
2023-02-13T05:31:16.751Z,14.02
2023-02-13T05:33:46.649Z,15.30
2023-02-13T05:36:14.921Z,14.90
2023-02-13T05:38:43.265Z,14.43
2023-02-13T05:41:13.525Z,15.70
2023-02-13T05:43:41.894Z,16.45
2023-02-13T05:46:11.222Z,17.15
2023-02-13T05:48:39.675Z,18.77
2023-02-13T05:51:09.645Z,14.38
2023-02-13T05:53:38.285Z,14.18
2023-02-13T05:56:07.653Z,15.10
2023-02-13T05:58:36.924Z,16.33
2023-02-13T06:01:06.277Z,15.88
2023-02-13T06:03:35.121Z,15.48
2023-02-13T06:06:03.664Z,15.85
2023-02-13T06:08:33.561Z,18.13
2023-02-13T06:11:02.201Z,16.63
2023-02-13T06:13:31.077Z,15.10
2023-02-13T06:15:59.563Z,16.05
2023-02-13T06:18:27.991Z,17.08
2023-02-13T06:20:56.457Z,15.05
2023-02-13T06:23:25.081Z,15.48
2023-02-13T06:25:54.825Z,14.45
2023-02-13T06:28:23.129Z,16.63
2023-02-13T06:30:51.611Z,13.25
2023-02-13T06:33:20.005Z,14.77
2023-02-13T06:35:48.419Z,12.40
2023-02-13T06:38:19.095Z,12.10
2023-02-13T06:40:47.637Z,12.23
2023-02-13T06:43:17.864Z,10.65
2023-02-13T06:45:47.481Z,12.13
2023-02-13T06:48:15.905Z,10.15
2023-02-13T06:50:44.277Z,10.90
2023-02-13T06:53:12.634Z,9.75
2023-02-13T06:55:40.974Z,10.73
2023-02-13T06:58:09.320Z,11.50
2023-02-13T07:00:39.024Z,12.60
2023-02-13T07:03:10.023Z,11.98
2023-02-13T07:05:41.762Z,10.50
2023-02-13T07:08:10.281Z,8.48
2023-02-13T07:10:39.699Z,8.65
2023-02-13T07:13:08.226Z,8.98
2023-02-13T07:15:38.910Z,8.65
2023-02-13T07:18:08.295Z,9.15
2023-02-13T07:20:36.986Z,9.68
2023-02-13T07:23:06.918Z,9.43
2023-02-13T07:25:35.688Z,8.90
2023-02-13T07:28:04.523Z,8.70
2023-02-13T07:30:33.619Z,9.10
2023-02-13T07:33:05.640Z,8.98
2023-02-13T07:35:36.042Z,9.57
2023-02-13T07:38:04.361Z,10.80
2023-02-13T07:40:32.862Z,7.95
2023-02-13T07:43:03.074Z,8.00
2023-02-13T07:45:31.607Z,8.00
2023-02-13T07:48:00.303Z,7.80
2023-02-13T07:50:30.440Z,7.50
2023-02-13T07:52:59.928Z,7.53
2023-02-13T07:55:28.802Z,7.13
2023-02-13T07:57:57.989Z,7.30
2023-02-13T08:00:26.591Z,8.00
2023-02-13T08:02:54.883Z,7.25
2023-02-13T08:05:23.109Z,7.60
2023-02-13T08:07:53.751Z,7.90
2023-02-13T08:10:40.056Z,8.30
2023-02-13T08:13:09.232Z,6.97
2023-02-13T08:15:37.600Z,7.40
2023-02-13T08:18:06.274Z,6.47
2023-02-13T08:20:34.877Z,5.85
2023-02-13T08:23:09.460Z,6.15
2023-02-13T08:25:39.742Z,5.00
2023-02-13T08:28:08.382Z,5.30
2023-02-13T08:30:37.051Z,5.25
2023-02-13T08:33:05.499Z,4.95
2023-02-13T08:35:33.797Z,4.22
2023-02-13T08:38:04.908Z,3.60
2023-02-13T08:40:34.892Z,4.10
2023-02-13T08:43:03.390Z,3.58
2023-02-13T08:45:32.380Z,3.42
2023-02-13T08:48:01.532Z,4.68
2023-02-13T08:50:31.814Z,4.95
2023-02-13T08:53:03.399Z,3.85
2023-02-13T08:55:32.366Z,4.60
2023-02-13T08:58:04.885Z,4.20
2023-02-13T09:00:36.341Z,4.60
2023-02-13T09:03:08.375Z,4.53
2023-02-13T09:05:40.781Z,4.90
2023-02-13T09:08:11.799Z,4.68
2023-02-13T09:10:40.450Z,5.38
2023-02-13T09:13:13.349Z,5.32
2023-02-13T09:15:49.240Z,6.40
2023-02-13T09:18:19.822Z,5.45
2023-02-13T09:20:48.246Z,6.05
2023-02-13T09:23:18.861Z,6.20
2023-02-13T09:25:56.059Z,5.50
2023-02-13T09:28:26.709Z,4.40
2023-02-13T09:30:55.350Z,6.07
2023-02-13T09:33:24.315Z,6.32
2023-02-13T09:35:55.871Z,6.72
2023-02-13T09:38:24.505Z,6.30
2023-02-13T09:40:57.674Z,8.25
2023-02-13T09:43:32.539Z,5.55
2023-02-13T09:46:14.354Z,4.97
2023-02-13T09:48:48.718Z,4.55
2023-02-13T09:51:22.443Z,5.03
2023-02-13T09:53:55.157Z,4.95
2023-02-13T09:56:37.697Z,6.32
2023-02-13T09:59:19.341Z,4.55
2023-02-13T10:01:51.472Z,4.95
2023-02-13T10:04:48.167Z,5.82
2023-02-13T10:07:27.303Z,4.95
2023-02-13T10:10:08.192Z,4.95
2023-02-13T10:12:53.965Z,4.50
2023-02-13T10:15:32.376Z,6.30
2023-02-13T10:18:04.658Z,5.07
2023-02-13T10:20:37.866Z,4.60
2023-02-13T10:23:20.599Z,4.55
2023-02-13T10:25:55.004Z,4.03
2023-02-13T10:28:44.914Z,3.83
2023-02-13T10:31:18.663Z,3.17
2023-02-13T10:33:52.224Z,4.45
2023-02-13T10:36:24.390Z,3.55
2023-02-13T10:39:02.272Z,3.38
2023-02-13T10:41:51.365Z,3.28
2023-02-13T10:44:41.947Z,3.35
2023-02-13T10:47:43.048Z,3.58
2023-02-13T10:50:27.565Z,4.75
2023-02-13T10:53:12.498Z,3.90
2023-02-13T10:56:07.505Z,3.47
2023-02-13T10:58:53.994Z,3.55
2023-02-13T11:01:31.379Z,3.65
2023-02-13T11:04:08.607Z,3.75
2023-02-13T11:06:39.710Z,3.20
2023-02-13T11:09:08.861Z,3.25
2023-02-13T11:11:39.044Z,3.00
2023-02-13T11:14:14.876Z,2.80
2023-02-13T11:16:53.229Z,4.65
2023-02-13T11:19:27.906Z,3.38
2023-02-13T11:22:02.307Z,4.07
2023-02-13T11:24:32.590Z,3.58
2023-02-13T11:27:05.945Z,3.40
2023-02-13T11:29:36.193Z,3.92
2023-02-13T11:32:20.746Z,4.20
2023-02-13T11:34:52.075Z,3.58
2023-02-13T11:37:29.940Z,4.32
2023-02-13T11:40:30.453Z,4.13
2023-02-13T11:43:01.597Z,3.88
2023-02-13T11:45:30.262Z,5.05
2023-02-13T11:48:14.199Z,3.60
2023-02-13T11:50:56.324Z,3.97
2023-02-13T11:53:30.645Z,5.20
2023-02-13T11:56:06.949Z,6.28
2023-02-13T11:58:35.672Z,6.60
2023-02-13T12:01:28.587Z,8.05
2023-02-13T12:04:09.599Z,8.35
2023-02-13T12:06:42.089Z,8.38
2023-02-13T12:09:16.583Z,8.82
2023-02-13T12:11:49.741Z,10.13
2023-02-13T12:14:23.868Z,9.50
2023-02-13T12:16:56.775Z,10.35
2023-02-13T12:19:31.153Z,9.00
2023-02-13T12:22:16.796Z,9.95
2023-02-13T12:25:20.377Z,9.98
2023-02-13T12:27:57.688Z,9.68
2023-02-13T12:30:57.248Z,9.55
2023-02-13T12:33:54.231Z,11.18
2023-02-13T12:36:26.474Z,9.55
2023-02-13T12:39:43.990Z,10.43
2023-02-13T12:43:01.265Z,9.80
2023-02-13T12:48:41.642Z,10.25
2023-02-13T12:51:27.849Z,9.50
2023-02-13T12:54:16.516Z,10.73
2023-02-13T12:57:00.019Z,10.90
2023-02-13T12:59:41.726Z,10.90
2023-02-13T13:02:50.564Z,11.30
2023-02-13T13:05:43.290Z,10.98
2023-02-13T13:08:35.745Z,11.65
2023-02-13T13:11:33.657Z,12.07
2023-02-13T13:14:21.447Z,11.93
2023-02-13T13:17:27.147Z,12.35
2023-02-13T13:20:10.491Z,13.13
2023-02-13T13:22:46.338Z,12.05
2023-02-13T13:25:24.236Z,12.63
2023-02-13T13:27:59.306Z,11.00
2023-02-13T13:30:30.200Z,11.65
2023-02-13T13:33:03.890Z,11.48
2023-02-13T13:35:34.098Z,11.82
2023-02-13T13:38:13.901Z,11.23
2023-02-13T13:40:51.545Z,10.88
2023-02-13T13:43:29.807Z,10.35
2023-02-13T13:46:10.465Z,11.82
2023-02-13T13:49:02.273Z,10.93
2023-02-13T13:51:31.965Z,9.52
2023-02-13T13:54:24.704Z,9.00
2023-02-13T13:57:14.191Z,10.50
2023-02-13T14:00:27.589Z,9.70
2023-02-13T14:03:24.520Z,9.95
2023-02-13T14:06:07.676Z,9.80
2023-02-13T14:09:11.866Z,9.40
2023-02-13T14:11:42.943Z,9.82
2023-02-13T14:14:52.688Z,10.43
2023-02-13T14:17:57.878Z,11.85
2023-02-13T14:20:44.317Z,11.82
2023-02-13T14:23:23.924Z,12.80
2023-02-13T14:25:52.846Z,12.20
2023-02-13T14:28:25.746Z,13.20
2023-02-13T14:31:06.801Z,14.23
2023-02-13T14:33:35.481Z,11.88
2023-02-13T14:36:09.917Z,13.15
2023-02-13T14:38:38.583Z,14.20
2023-02-13T14:41:07.649Z,12.80
2023-02-13T14:43:40.185Z,12.88
2023-02-13T14:46:31.980Z,12.70
2023-02-13T14:49:06.969Z,13.25
2023-02-13T14:51:41.252Z,12.23
2023-02-13T14:54:20.448Z,13.38
2023-02-13T14:56:52.351Z,14.77
2023-02-13T14:59:24.209Z,14.65
2023-02-13T15:02:00.387Z,13.48
2023-02-13T15:04:36.157Z,15.07
2023-02-13T15:07:08.250Z,14.57
2023-02-13T15:09:40.293Z,12.88
2023-02-13T15:12:28.391Z,14.70
2023-02-13T15:14:57.089Z,13.23
2023-02-13T15:17:29.421Z,15.30
2023-02-13T15:20:04.627Z,14.90
2023-02-13T15:22:40.004Z,13.35
2023-02-13T15:25:24.766Z,11.85
2023-02-13T15:27:56.595Z,15.40
2023-02-13T15:30:30.258Z,17.35
2023-02-13T15:33:00.874Z,22.73
2023-02-13T15:35:31.604Z,23.38
2023-02-13T15:38:18.135Z,30.48
2023-02-13T15:40:46.633Z,21.90
2023-02-13T15:43:23.932Z,17.48
2023-02-13T15:46:02.347Z,21.40
2023-02-13T15:48:36.621Z,22.13
2023-02-13T15:51:05.940Z,18.73
2023-02-13T15:53:35.772Z,15.82
2023-02-13T15:56:06.505Z,15.73
2023-02-13T15:58:36.419Z,14.73
2023-02-13T16:01:08.125Z,14.00
2023-02-13T16:03:37.967Z,12.77
2023-02-13T16:06:11.612Z,13.35
2023-02-13T16:08:45.893Z,12.68
2023-02-13T16:11:31.584Z,11.93
2023-02-13T16:14:10.612Z,11.50
2023-02-13T16:16:50.160Z,10.45
2023-02-13T16:19:38.647Z,11.55
2023-02-13T16:22:17.472Z,12.00
2023-02-13T16:24:53.812Z,10.93
2023-02-13T16:27:25.181Z,11.20
2023-02-13T16:29:57.321Z,12.63
2023-02-13T16:32:30.547Z,13.45
2023-02-13T16:35:18.562Z,13.82
2023-02-13T16:43:53.253Z,12.13
2023-02-13T16:46:36.524Z,13.73
2023-02-13T16:49:25.363Z,11.30
2023-02-13T16:51:57.934Z,15.57
2023-02-13T16:54:39.717Z,15.85
2023-02-13T16:57:23.065Z,16.67
2023-02-13T17:00:02.485Z,14.18
2023-02-13T17:02:31.893Z,11.40
2023-02-13T17:05:19.982Z,11.73
2023-02-13T17:07:53.053Z,12.32
2023-02-13T17:10:27.746Z,20.50
2023-02-13T17:13:00.432Z,22.27
2023-02-13T17:15:31.364Z,27.55
2023-02-13T17:18:00.358Z,22.38
2023-02-13T17:20:30.920Z,21.35
2023-02-13T17:23:00.825Z,16.10
2023-02-13T17:25:31.386Z,20.33
2023-02-13T17:28:06.412Z,19.58
2023-02-13T17:30:36.197Z,22.15
2023-02-13T17:33:07.705Z,15.23
2023-02-13T17:35:52.754Z,15.63
2023-02-13T17:38:24.718Z,19.35
2023-02-13T17:40:56.916Z,20.77
2023-02-13T17:43:30.997Z,24.70
2023-02-13T17:46:06.025Z,26.40
2023-02-13T17:48:39.869Z,31.35
2023-02-13T17:51:14.123Z,18.25
2023-02-13T17:53:43.437Z,17.50
2023-02-13T17:56:15.821Z,17.50
2023-02-13T17:58:45.970Z,17.08
2023-02-13T18:01:15.705Z,16.13
2023-02-13T18:03:53.325Z,17.92
2023-02-13T18:06:28.441Z,16.45
2023-02-13T18:09:03.746Z,16.35
2023-02-13T18:11:35.622Z,16.58
2023-02-13T18:14:05.490Z,17.02
2023-02-13T18:16:46.244Z,18.65
2023-02-13T18:19:17.009Z,18.30
2023-02-13T18:21:45.411Z,17.50
2023-02-13T18:24:17.759Z,19.10
2023-02-13T18:26:49.203Z,18.40
2023-02-13T18:29:25.290Z,19.30
2023-02-13T18:31:53.902Z,18.00
2023-02-13T18:34:23.623Z,22.75
2023-02-13T18:36:52.558Z,20.15
2023-02-13T18:39:21.306Z,19.95
2023-02-13T18:41:49.796Z,20.50
2023-02-13T18:44:28.469Z,19.05
2023-02-13T18:46:57.266Z,19.38
2023-02-13T18:49:25.952Z,17.02
2023-02-13T18:51:57.895Z,18.00
2023-02-13T18:54:32.691Z,17.20
2023-02-13T18:57:00.955Z,16.35
2023-02-13T18:59:33.430Z,17.90
2023-02-13T19:02:04.197Z,16.77
2023-02-13T19:04:35.165Z,18.02
2023-02-13T19:07:06.390Z,18.90
2023-02-13T19:09:40.035Z,17.23
2023-02-13T19:12:09.385Z,17.10
2023-02-13T19:14:40.568Z,17.90
2023-02-13T19:17:16.872Z,16.30
2023-02-13T19:19:48.546Z,16.02
2023-02-13T19:22:19.838Z,16.63
2023-02-13T19:24:48.195Z,16.10
2023-02-13T19:27:17.571Z,16.25
2023-02-13T19:29:51.948Z,15.95
2023-02-13T19:32:20.372Z,16.35
2023-02-13T19:34:51.654Z,17.92
2023-02-13T19:37:20.194Z,15.02
2023-02-13T19:39:49.020Z,16.67
2023-02-13T19:42:17.530Z,17.50
2023-02-13T19:44:47.278Z,16.50
2023-02-13T19:47:17.000Z,15.45
2023-02-13T19:49:53.386Z,15.93
2023-02-13T19:52:21.946Z,15.50
2023-02-13T19:54:50.973Z,15.02
2023-02-13T19:57:29.946Z,14.40
2023-02-13T20:00:01.995Z,16.45
2023-02-13T20:02:38.232Z,17.20
2023-02-13T20:05:15.177Z,16.73
2023-02-13T20:08:01.055Z,15.65
2023-02-13T20:10:42.042Z,14.07
2023-02-13T20:13:25.392Z,15.00
2023-02-13T20:16:26.349Z,15.20
2023-02-13T20:19:02.499Z,15.45
2023-02-13T20:21:34.282Z,15.52
2023-02-13T20:24:11.587Z,15.70
2023-02-13T20:26:41.150Z,17.48
2023-02-13T20:29:10.923Z,16.63
2023-02-13T20:31:45.868Z,16.60
2023-02-13T20:34:16.283Z,15.00
2023-02-13T20:36:50.801Z,14.35
2023-02-13T20:39:23.860Z,14.95
2023-02-13T20:41:54.308Z,15.07
2023-02-13T20:44:25.634Z,16.90
2023-02-13T20:46:55.800Z,15.05
2023-02-13T20:49:26.853Z,16.05
2023-02-13T20:51:55.370Z,16.23
2023-02-13T20:54:26.836Z,14.68
2023-02-13T20:56:55.428Z,14.75
2023-02-13T20:59:23.988Z,13.90
2023-02-13T21:01:52.732Z,13.13
2023-02-13T21:04:21.395Z,12.73
2023-02-13T21:06:56.433Z,14.27
2023-02-13T21:09:28.639Z,12.55
2023-02-13T21:11:57.066Z,13.00
2023-02-13T21:14:25.615Z,12.63
2023-02-13T21:16:58.722Z,12.60
2023-02-13T21:19:27.707Z,13.70
2023-02-13T21:22:11.118Z,12.40
2023-02-13T21:24:40.652Z,18.70
2023-02-13T21:27:13.627Z,14.50
2023-02-13T21:29:42.444Z,12.70
2023-02-13T21:32:11.157Z,12.18
2023-02-13T21:34:43.684Z,11.27
2023-02-13T21:37:14.056Z,10.85
2023-02-13T21:39:54.420Z,12.05
2023-02-13T21:42:32.017Z,10.68
2023-02-13T21:45:01.012Z,11.77
2023-02-13T21:47:29.582Z,11.18
2023-02-13T21:50:03.078Z,10.82
2023-02-13T21:52:37.010Z,9.95
2023-02-13T21:55:07.913Z,10.38
2023-02-13T21:57:37.234Z,10.10
2023-02-13T22:00:08.798Z,9.10
2023-02-13T22:02:39.798Z,9.68
2023-02-13T22:05:11.318Z,10.90
2023-02-13T22:08:01.999Z,10.85
2023-02-13T22:10:31.399Z,9.50
2023-02-13T22:13:03.754Z,10.45
2023-02-13T22:15:41.849Z,10.63
2023-02-13T22:18:10.365Z,9.52
2023-02-13T22:20:40.220Z,10.80
2023-02-13T22:23:10.182Z,10.75
2023-02-13T22:25:38.554Z,10.10
2023-02-13T22:28:10.467Z,10.68
2023-02-13T22:30:39.342Z,9.32
2023-02-13T22:33:08.049Z,8.55
2023-02-13T22:35:39.485Z,8.70
2023-02-13T22:38:31.423Z,8.77
2023-02-13T22:41:29.127Z,9.00
2023-02-13T22:43:59.017Z,8.20
2023-02-13T22:46:29.937Z,8.98
2023-02-13T22:49:07.902Z,8.68
2023-02-13T22:51:42.215Z,8.35
2023-02-13T22:54:15.124Z,9.60
2023-02-13T22:56:53.129Z,9.20
2023-02-13T22:59:25.170Z,9.90
2023-02-13T23:01:53.681Z,9.88
2023-02-13T23:04:22.190Z,8.77
2023-02-13T23:06:51.071Z,9.40
2023-02-13T23:09:19.812Z,9.93
2023-02-13T23:12:07.589Z,9.95
2023-02-13T23:14:36.398Z,10.68
2023-02-13T23:17:43.380Z,10.73
2023-02-13T23:20:16.071Z,9.23
2023-02-13T23:22:45.157Z,9.27
2023-02-13T23:25:20.233Z,9.63
2023-02-13T23:27:50.753Z,9.00
2023-02-13T23:30:19.953Z,9.30
2023-02-13T23:32:48.521Z,8.38
2023-02-13T23:35:17.515Z,9.35
2023-02-13T23:37:45.934Z,8.88
2023-02-13T23:40:16.371Z,8.73
2023-02-13T23:42:48.355Z,9.10
2023-02-13T23:45:21.261Z,9.05
2023-02-13T23:47:57.913Z,10.10
2023-02-13T23:50:34.040Z,8.80
2023-02-13T23:53:02.934Z,9.15
2023-02-13T23:55:31.674Z,9.00
2023-02-13T23:58:00.736Z,8.07
